sensor_id;sensor_type;location;lat;lon;timestamp;P1;durP1;ratioP1;P2;durP2;ratioP2
64459;SDS011;50828;53.756;21.140;2023-04-06T00:03:41;16.60;;;7.10;;
64459;SDS011;50828;53.756;21.140;2023-04-06T00:08:50;18.60;;;7.20;;
64459;SDS011;50828;53.756;21.140;2023-04-06T00:13:59;19.00;;;7.00;;
64459;SDS011;50828;53.756;21.140;2023-04-06T00:19:07;15.60;;;6.00;;
64459;SDS011;50828;53.756;21.140;2023-04-06T00:24:15;12.70;;;5.70;;
64459;SDS011;50828;53.756;21.140;2023-04-06T00:29:23;10.20;;;5.50;;
64459;SDS011;50828;53.756;21.140;2023-04-06T00:34:31;14.00;;;5.40;;
64459;SDS011;50828;53.756;21.140;2023-04-06T00:39:38;10.60;;;5.10;;
64459;SDS011;50828;53.756;21.140;2023-04-06T00:44:45;8.50;;;4.60;;
64459;SDS011;50828;53.756;21.140;2023-04-06T00:49:54;12.10;;;5.20;;
64459;SDS011;50828;53.756;21.140;2023-04-06T00:55:02;10.10;;;4.90;;
64459;SDS011;50828;53.756;21.140;2023-04-06T01:00:15;10.00;;;5.20;;
64459;SDS011;50828;53.756;21.140;2023-04-06T01:05:26;11.20;;;5.50;;
64459;SDS011;50828;53.756;21.140;2023-04-06T01:10:34;10.90;;;5.20;;
64459;SDS011;50828;53.756;21.140;2023-04-06T01:15:58;11.80;;;5.60;;
64459;SDS011;50828;53.756;21.140;2023-04-06T01:21:21;10.60;;;5.60;;
64459;SDS011;50828;53.756;21.140;2023-04-06T01:26:54;11.90;;;5.60;;
64459;SDS011;50828;53.756;21.140;2023-04-06T01:32:05;9.90;;;5.20;;
64459;SDS011;50828;53.756;21.140;2023-04-06T01:37:20;8.80;;;4.70;;
64459;SDS011;50828;53.756;21.140;2023-04-06T01:42:30;10.60;;;5.60;;
64459;SDS011;50828;53.756;21.140;2023-04-06T01:47:38;13.30;;;5.70;;
64459;SDS011;50828;53.756;21.140;2023-04-06T01:52:47;8.80;;;5.20;;
64459;SDS011;50828;53.756;21.140;2023-04-06T01:57:56;10.50;;;4.90;;
64459;SDS011;50828;53.756;21.140;2023-04-06T02:03:10;7.20;;;4.30;;
64459;SDS011;50828;53.756;21.140;2023-04-06T02:08:20;12.60;;;4.30;;
64459;SDS011;50828;53.756;21.140;2023-04-06T02:13:28;9.60;;;4.90;;
64459;SDS011;50828;53.756;21.140;2023-04-06T02:18:36;7.90;;;4.20;;
64459;SDS011;50828;53.756;21.140;2023-04-06T02:23:45;11.10;;;5.20;;
64459;SDS011;50828;53.756;21.140;2023-04-06T02:28:54;11.60;;;5.00;;
64459;SDS011;50828;53.756;21.140;2023-04-06T02:34:03;10.30;;;5.20;;
64459;SDS011;50828;53.756;21.140;2023-04-06T02:39:11;9.40;;;5.10;;
64459;SDS011;50828;53.756;21.140;2023-04-06T02:44:19;7.90;;;4.20;;
64459;SDS011;50828;53.756;21.140;2023-04-06T02:49:28;11.60;;;4.90;;
64459;SDS011;50828;53.756;21.140;2023-04-06T02:54:35;8.60;;;4.60;;
64459;SDS011;50828;53.756;21.140;2023-04-06T02:59:43;7.60;;;4.50;;
64459;SDS011;50828;53.756;21.140;2023-04-06T03:04:55;11.80;;;5.80;;
64459;SDS011;50828;53.756;21.140;2023-04-06T03:10:10;10.30;;;5.60;;
64459;SDS011;50828;53.756;21.140;2023-04-06T03:15:21;12.90;;;5.90;;
64459;SDS011;50828;53.756;21.140;2023-04-06T03:20:35;12.40;;;5.40;;
64459;SDS011;50828;53.756;21.140;2023-04-06T03:25:43;8.60;;;4.80;;
64459;SDS011;50828;53.756;21.140;2023-04-06T03:30:54;9.10;;;4.30;;
64459;SDS011;50828;53.756;21.140;2023-04-06T03:36:24;10.30;;;5.40;;
64459;SDS011;50828;53.756;21.140;2023-04-06T03:41:32;12.70;;;5.50;;
64459;SDS011;50828;53.756;21.140;2023-04-06T03:46:47;25.50;;;12.10;;
64459;SDS011;50828;53.756;21.140;2023-04-06T03:51:57;174.10;;;62.00;;
64459;SDS011;50828;53.756;21.140;2023-04-06T03:57:05;444.30;;;184.20;;
64459;SDS011;50828;53.756;21.140;2023-04-06T04:02:13;395.00;;;170.40;;
64459;SDS011;50828;53.756;21.140;2023-04-06T04:07:20;227.80;;;101.80;;
64459;SDS011;50828;53.756;21.140;2023-04-06T04:12:28;176.10;;;78.30;;
64459;SDS011;50828;53.756;21.140;2023-04-06T04:17:36;212.60;;;91.40;;
64459;SDS011;50828;53.756;21.140;2023-04-06T04:22:47;156.80;;;68.20;;
64459;SDS011;50828;53.756;21.140;2023-04-06T04:27:55;143.00;;;57.00;;
64459;SDS011;50828;53.756;21.140;2023-04-06T04:33:04;121.20;;;46.20;;
64459;SDS011;50828;53.756;21.140;2023-04-06T04:38:11;70.80;;;26.50;;
64459;SDS011;50828;53.756;21.140;2023-04-06T04:43:20;35.20;;;15.90;;
64459;SDS011;50828;53.756;21.140;2023-04-06T04:48:29;61.70;;;23.90;;
64459;SDS011;50828;53.756;21.140;2023-04-06T04:53:38;140.30;;;52.70;;
64459;SDS011;50828;53.756;21.140;2023-04-06T04:58:54;236.90;;;87.80;;
64459;SDS011;50828;53.756;21.140;2023-04-06T05:04:02;297.50;;;109.10;;
64459;SDS011;50828;53.756;21.140;2023-04-06T05:09:11;193.80;;;77.30;;
64459;SDS011;50828;53.756;21.140;2023-04-06T05:14:20;120.70;;;52.90;;
64459;SDS011;50828;53.756;21.140;2023-04-06T05:19:27;141.50;;;67.50;;
64459;SDS011;50828;53.756;21.140;2023-04-06T05:24:37;85.00;;;41.90;;
64459;SDS011;50828;53.756;21.140;2023-04-06T05:29:45;59.30;;;29.40;;
64459;SDS011;50828;53.756;21.140;2023-04-06T05:34:54;57.40;;;25.30;;
64459;SDS011;50828;53.756;21.140;2023-04-06T05:40:02;68.50;;;27.50;;
64459;SDS011;50828;53.756;21.140;2023-04-06T05:45:12;59.80;;;26.40;;
64459;SDS011;50828;53.756;21.140;2023-04-06T05:50:26;44.80;;;20.40;;
64459;SDS011;50828;53.756;21.140;2023-04-06T05:55:36;31.30;;;14.70;;
64459;SDS011;50828;53.756;21.140;2023-04-06T06:00:51;39.60;;;14.10;;
64459;SDS011;50828;53.756;21.140;2023-04-06T06:06:11;26.60;;;12.50;;
64459;SDS011;50828;53.756;21.140;2023-04-06T06:11:43;24.70;;;13.50;;
64459;SDS011;50828;53.756;21.140;2023-04-06T06:16:51;29.30;;;15.30;;
64459;SDS011;50828;53.756;21.140;2023-04-06T06:21:59;24.50;;;12.30;;
64459;SDS011;50828;53.756;21.140;2023-04-06T06:27:10;25.30;;;11.50;;
64459;SDS011;50828;53.756;21.140;2023-04-06T06:32:18;23.20;;;10.00;;
64459;SDS011;50828;53.756;21.140;2023-04-06T06:37:27;38.70;;;14.30;;
64459;SDS011;50828;53.756;21.140;2023-04-06T06:42:36;39.90;;;13.00;;
64459;SDS011;50828;53.756;21.140;2023-04-06T06:47:52;41.90;;;13.30;;
64459;SDS011;50828;53.756;21.140;2023-04-06T06:52:59;33.20;;;11.50;;
64459;SDS011;50828;53.756;21.140;2023-04-06T06:58:07;29.90;;;11.00;;
64459;SDS011;50828;53.756;21.140;2023-04-06T07:03:14;31.40;;;11.20;;
64459;SDS011;50828;53.756;21.140;2023-04-06T07:08:22;23.90;;;8.90;;
64459;SDS011;50828;53.756;21.140;2023-04-06T07:13:30;16.70;;;6.80;;
64459;SDS011;50828;53.756;21.140;2023-04-06T07:18:38;14.00;;;6.60;;
64459;SDS011;50828;53.756;21.140;2023-04-06T07:23:46;24.90;;;9.00;;
64459;SDS011;50828;53.756;21.140;2023-04-06T07:28:54;25.60;;;8.80;;
64459;SDS011;50828;53.756;21.140;2023-04-06T07:34:03;28.80;;;10.20;;
64459;SDS011;50828;53.756;21.140;2023-04-06T07:39:10;25.70;;;8.40;;
64459;SDS011;50828;53.756;21.140;2023-04-06T07:44:18;17.20;;;6.70;;
64459;SDS011;50828;53.756;21.140;2023-04-06T07:49:26;24.10;;;8.20;;
64459;SDS011;50828;53.756;21.140;2023-04-06T07:54:36;24.10;;;9.30;;
64459;SDS011;50828;53.756;21.140;2023-04-06T07:59:45;18.90;;;7.40;;
64459;SDS011;50828;53.756;21.140;2023-04-06T08:04:53;18.20;;;7.00;;
64459;SDS011;50828;53.756;21.140;2023-04-06T08:10:00;20.80;;;7.50;;
64459;SDS011;50828;53.756;21.140;2023-04-06T08:15:09;13.80;;;6.20;;
64459;SDS011;50828;53.756;21.140;2023-04-06T08:20:17;12.30;;;4.80;;
64459;SDS011;50828;53.756;21.140;2023-04-06T08:25:25;8.40;;;3.90;;
64459;SDS011;50828;53.756;21.140;2023-04-06T08:30:32;8.60;;;3.80;;
64459;SDS011;50828;53.756;21.140;2023-04-06T08:35:40;12.10;;;5.30;;
64459;SDS011;50828;53.756;21.140;2023-04-06T08:40:48;9.70;;;4.20;;
64459;SDS011;50828;53.756;21.140;2023-04-06T08:45:56;11.20;;;4.40;;
64459;SDS011;50828;53.756;21.140;2023-04-06T08:51:04;9.30;;;4.00;;
64459;SDS011;50828;53.756;21.140;2023-04-06T08:56:12;15.00;;;4.80;;
64459;SDS011;50828;53.756;21.140;2023-04-06T09:01:21;9.40;;;4.20;;
64459;SDS011;50828;53.756;21.140;2023-04-06T09:06:31;15.30;;;5.70;;
64459;SDS011;50828;53.756;21.140;2023-04-06T09:11:47;14.90;;;7.00;;
64459;SDS011;50828;53.756;21.140;2023-04-06T09:16:55;16.90;;;6.70;;
64459;SDS011;50828;53.756;21.140;2023-04-06T09:22:03;18.60;;;7.80;;
64459;SDS011;50828;53.756;21.140;2023-04-06T09:27:12;12.40;;;5.80;;
64459;SDS011;50828;53.756;21.140;2023-04-06T09:32:20;9.50;;;5.20;;
64459;SDS011;50828;53.756;21.140;2023-04-06T09:37:27;8.10;;;5.20;;
64459;SDS011;50828;53.756;21.140;2023-04-06T09:42:35;9.30;;;5.20;;
64459;SDS011;50828;53.756;21.140;2023-04-06T09:47:43;10.70;;;5.30;;
64459;SDS011;50828;53.756;21.140;2023-04-06T09:52:52;14.80;;;6.20;;
64459;SDS011;50828;53.756;21.140;2023-04-06T09:58:03;14.00;;;5.80;;
64459;SDS011;50828;53.756;21.140;2023-04-06T10:03:14;11.40;;;5.50;;
64459;SDS011;50828;53.756;21.140;2023-04-06T10:08:41;14.30;;;6.30;;
64459;SDS011;50828;53.756;21.140;2023-04-06T10:13:51;13.90;;;4.80;;
64459;SDS011;50828;53.756;21.140;2023-04-06T10:19:02;10.20;;;4.70;;
64459;SDS011;50828;53.756;21.140;2023-04-06T10:24:15;10.20;;;5.20;;
64459;SDS011;50828;53.756;21.140;2023-04-06T10:29:22;11.10;;;5.50;;
64459;SDS011;50828;53.756;21.140;2023-04-06T10:34:35;7.90;;;5.00;;
64459;SDS011;50828;53.756;21.140;2023-04-06T10:45:02;16.10;;;5.60;;
64459;SDS011;50828;53.756;21.140;2023-04-06T10:50:23;19.20;;;7.60;;
64459;SDS011;50828;53.756;21.140;2023-04-06T10:55:35;25.40;;;7.80;;
64459;SDS011;50828;53.756;21.140;2023-04-06T11:00:46;30.80;;;11.00;;
64459;SDS011;50828;53.756;21.140;2023-04-06T11:05:54;37.80;;;12.10;;
64459;SDS011;50828;53.756;21.140;2023-04-06T11:11:11;24.40;;;9.40;;
64459;SDS011;50828;53.756;21.140;2023-04-06T11:16:22;17.00;;;7.30;;
64459;SDS011;50828;53.756;21.140;2023-04-06T11:21:34;27.60;;;9.00;;
64459;SDS011;50828;53.756;21.140;2023-04-06T11:31:52;13.90;;;6.10;;
64459;SDS011;50828;53.756;21.140;2023-04-06T11:37:04;17.80;;;7.80;;
64459;SDS011;50828;53.756;21.140;2023-04-06T11:42:20;16.30;;;7.00;;
64459;SDS011;50828;53.756;21.140;2023-04-06T11:47:29;20.30;;;8.00;;
64459;SDS011;50828;53.756;21.140;2023-04-06T11:52:39;27.40;;;10.80;;
64459;SDS011;50828;53.756;21.140;2023-04-06T11:57:48;18.90;;;9.00;;
64459;SDS011;50828;53.756;21.140;2023-04-06T12:02:55;16.70;;;7.60;;
64459;SDS011;50828;53.756;21.140;2023-04-06T12:08:03;13.30;;;6.10;;
64459;SDS011;50828;53.756;21.140;2023-04-06T12:13:11;15.30;;;6.90;;
64459;SDS011;50828;53.756;21.140;2023-04-06T12:18:18;47.80;;;13.00;;
64459;SDS011;50828;53.756;21.140;2023-04-06T12:23:25;39.70;;;12.70;;
64459;SDS011;50828;53.756;21.140;2023-04-06T12:28:33;33.10;;;9.80;;
64459;SDS011;50828;53.756;21.140;2023-04-06T12:33:41;40.70;;;12.70;;
64459;SDS011;50828;53.756;21.140;2023-04-06T12:38:50;32.70;;;11.20;;
64459;SDS011;50828;53.756;21.140;2023-04-06T12:43:57;22.20;;;8.50;;
64459;SDS011;50828;53.756;21.140;2023-04-06T12:49:05;18.00;;;7.60;;
64459;SDS011;50828;53.756;21.140;2023-04-06T12:54:13;14.40;;;6.10;;
64459;SDS011;50828;53.756;21.140;2023-04-06T12:59:23;23.00;;;9.00;;
64459;SDS011;50828;53.756;21.140;2023-04-06T13:04:32;32.00;;;10.20;;
64459;SDS011;50828;53.756;21.140;2023-04-06T13:09:39;34.30;;;9.90;;
64459;SDS011;50828;53.756;21.140;2023-04-06T13:14:47;52.90;;;16.30;;
64459;SDS011;50828;53.756;21.140;2023-04-06T13:19:56;71.10;;;18.80;;
64459;SDS011;50828;53.756;21.140;2023-04-06T13:25:04;58.40;;;17.00;;
64459;SDS011;50828;53.756;21.140;2023-04-06T13:30:13;46.10;;;14.20;;
64459;SDS011;50828;53.756;21.140;2023-04-06T13:35:21;39.60;;;15.50;;
64459;SDS011;50828;53.756;21.140;2023-04-06T13:40:28;43.90;;;17.40;;
64459;SDS011;50828;53.756;21.140;2023-04-06T13:45:36;43.60;;;16.60;;
64459;SDS011;50828;53.756;21.140;2023-04-06T13:50:43;34.70;;;13.10;;
64459;SDS011;50828;53.756;21.140;2023-04-06T13:55:54;34.20;;;12.20;;
64459;SDS011;50828;53.756;21.140;2023-04-06T14:01:03;36.10;;;10.70;;
64459;SDS011;50828;53.756;21.140;2023-04-06T14:06:14;42.10;;;14.20;;
64459;SDS011;50828;53.756;21.140;2023-04-06T14:11:24;31.00;;;11.10;;
64459;SDS011;50828;53.756;21.140;2023-04-06T14:16:31;30.30;;;12.10;;
64459;SDS011;50828;53.756;21.140;2023-04-06T14:21:39;62.10;;;24.50;;
64459;SDS011;50828;53.756;21.140;2023-04-06T14:26:47;46.60;;;19.60;;
64459;SDS011;50828;53.756;21.140;2023-04-06T14:31:54;32.80;;;12.90;;
64459;SDS011;50828;53.756;21.140;2023-04-06T14:37:03;27.80;;;11.00;;
64459;SDS011;50828;53.756;21.140;2023-04-06T14:42:11;21.50;;;9.50;;
64459;SDS011;50828;53.756;21.140;2023-04-06T14:47:18;21.20;;;9.00;;
64459;SDS011;50828;53.756;21.140;2023-04-06T14:52:25;24.50;;;10.00;;
64459;SDS011;50828;53.756;21.140;2023-04-06T14:57:35;22.00;;;9.20;;
64459;SDS011;50828;53.756;21.140;2023-04-06T15:02:43;31.30;;;11.80;;
64459;SDS011;50828;53.756;21.140;2023-04-06T15:07:50;26.20;;;10.20;;
64459;SDS011;50828;53.756;21.140;2023-04-06T15:12:57;23.50;;;10.90;;
64459;SDS011;50828;53.756;21.140;2023-04-06T15:18:05;25.50;;;10.70;;
64459;SDS011;50828;53.756;21.140;2023-04-06T15:23:13;32.20;;;14.20;;
64459;SDS011;50828;53.756;21.140;2023-04-06T15:28:21;31.10;;;12.50;;
64459;SDS011;50828;53.756;21.140;2023-04-06T15:33:28;31.40;;;12.60;;
64459;SDS011;50828;53.756;21.140;2023-04-06T15:38:35;26.10;;;11.80;;
64459;SDS011;50828;53.756;21.140;2023-04-06T15:43:44;25.80;;;11.00;;
64459;SDS011;50828;53.756;21.140;2023-04-06T15:48:51;31.30;;;12.30;;
64459;SDS011;50828;53.756;21.140;2023-04-06T15:53:59;27.80;;;11.30;;
64459;SDS011;50828;53.756;21.140;2023-04-06T15:59:06;26.70;;;11.40;;
64459;SDS011;50828;53.756;21.140;2023-04-06T16:04:14;24.10;;;11.10;;
64459;SDS011;50828;53.756;21.140;2023-04-06T16:09:21;22.50;;;10.00;;
64459;SDS011;50828;53.756;21.140;2023-04-06T16:14:29;35.70;;;14.50;;
64459;SDS011;50828;53.756;21.140;2023-04-06T16:19:36;32.00;;;14.20;;
64459;SDS011;50828;53.756;21.140;2023-04-06T16:24:44;42.20;;;17.50;;
64459;SDS011;50828;53.756;21.140;2023-04-06T16:29:51;32.60;;;14.30;;
64459;SDS011;50828;53.756;21.140;2023-04-06T16:34:59;41.20;;;15.90;;
64459;SDS011;50828;53.756;21.140;2023-04-06T16:40:08;29.90;;;13.80;;
64459;SDS011;50828;53.756;21.140;2023-04-06T16:45:17;37.70;;;15.30;;
64459;SDS011;50828;53.756;21.140;2023-04-06T16:50:25;45.50;;;14.50;;
64459;SDS011;50828;53.756;21.140;2023-04-06T16:55:32;39.20;;;15.10;;
64459;SDS011;50828;53.756;21.140;2023-04-06T17:00:42;42.40;;;15.60;;
64459;SDS011;50828;53.756;21.140;2023-04-06T17:05:50;131.90;;;43.20;;
64459;SDS011;50828;53.756;21.140;2023-04-06T17:10:57;455.00;;;148.10;;
64459;SDS011;50828;53.756;21.140;2023-04-06T17:16:07;482.30;;;153.20;;
64459;SDS011;50828;53.756;21.140;2023-04-06T17:21:15;373.60;;;117.50;;
64459;SDS011;50828;53.756;21.140;2023-04-06T17:26:23;392.50;;;132.50;;
64459;SDS011;50828;53.756;21.140;2023-04-06T17:31:31;292.80;;;105.10;;
64459;SDS011;50828;53.756;21.140;2023-04-06T17:36:38;292.90;;;100.50;;
64459;SDS011;50828;53.756;21.140;2023-04-06T17:41:45;304.20;;;94.20;;
64459;SDS011;50828;53.756;21.140;2023-04-06T17:46:53;223.40;;;80.40;;
64459;SDS011;50828;53.756;21.140;2023-04-06T17:52:00;315.90;;;114.40;;
64459;SDS011;50828;53.756;21.140;2023-04-06T17:57:07;400.40;;;163.30;;
64459;SDS011;50828;53.756;21.140;2023-04-06T18:02:14;322.10;;;118.30;;
64459;SDS011;50828;53.756;21.140;2023-04-06T18:07:22;178.30;;;65.10;;
64459;SDS011;50828;53.756;21.140;2023-04-06T18:12:30;177.50;;;59.10;;
64459;SDS011;50828;53.756;21.140;2023-04-06T18:17:38;181.30;;;56.60;;
64459;SDS011;50828;53.756;21.140;2023-04-06T18:22:45;199.40;;;54.30;;
64459;SDS011;50828;53.756;21.140;2023-04-06T18:27:58;236.50;;;60.30;;
64459;SDS011;50828;53.756;21.140;2023-04-06T18:33:05;112.80;;;32.90;;
64459;SDS011;50828;53.756;21.140;2023-04-06T18:38:12;105.50;;;33.10;;
64459;SDS011;50828;53.756;21.140;2023-04-06T18:43:20;288.50;;;73.40;;
64459;SDS011;50828;53.756;21.140;2023-04-06T18:48:28;164.40;;;43.50;;
64459;SDS011;50828;53.756;21.140;2023-04-06T18:53:35;142.40;;;39.40;;
64459;SDS011;50828;53.756;21.140;2023-04-06T18:58:43;101.60;;;29.30;;
64459;SDS011;50828;53.756;21.140;2023-04-06T19:03:52;161.10;;;39.00;;
64459;SDS011;50828;53.756;21.140;2023-04-06T19:09:01;138.70;;;38.20;;
64459;SDS011;50828;53.756;21.140;2023-04-06T19:14:08;229.50;;;57.70;;
64459;SDS011;50828;53.756;21.140;2023-04-06T19:19:16;338.00;;;81.10;;
64459;SDS011;50828;53.756;21.140;2023-04-06T19:24:24;197.20;;;49.40;;
64459;SDS011;50828;53.756;21.140;2023-04-06T19:29:32;161.10;;;46.70;;
64459;SDS011;50828;53.756;21.140;2023-04-06T19:34:41;130.20;;;44.70;;
64459;SDS011;50828;53.756;21.140;2023-04-06T19:39:48;152.60;;;51.80;;
64459;SDS011;50828;53.756;21.140;2023-04-06T19:44:55;113.10;;;42.40;;
64459;SDS011;50828;53.756;21.140;2023-04-06T19:50:03;95.70;;;39.50;;
64459;SDS011;50828;53.756;21.140;2023-04-06T19:55:12;75.50;;;30.90;;
64459;SDS011;50828;53.756;21.140;2023-04-06T20:00:20;99.10;;;36.30;;
64459;SDS011;50828;53.756;21.140;2023-04-06T20:05:27;106.30;;;39.30;;
64459;SDS011;50828;53.756;21.140;2023-04-06T20:10:36;172.50;;;53.70;;
64459;SDS011;50828;53.756;21.140;2023-04-06T20:15:44;123.70;;;44.40;;
64459;SDS011;50828;53.756;21.140;2023-04-06T20:20:51;102.80;;;38.80;;
64459;SDS011;50828;53.756;21.140;2023-04-06T20:25:59;93.20;;;37.50;;
64459;SDS011;50828;53.756;21.140;2023-04-06T20:31:08;104.50;;;40.90;;
64459;SDS011;50828;53.756;21.140;2023-04-06T20:36:16;136.60;;;47.20;;
64459;SDS011;50828;53.756;21.140;2023-04-06T20:41:24;132.20;;;49.60;;
64459;SDS011;50828;53.756;21.140;2023-04-06T20:46:32;142.40;;;48.90;;
64459;SDS011;50828;53.756;21.140;2023-04-06T20:51:39;155.00;;;52.50;;
64459;SDS011;50828;53.756;21.140;2023-04-06T20:56:48;138.10;;;47.80;;
64459;SDS011;50828;53.756;21.140;2023-04-06T21:01:55;100.30;;;35.40;;
64459;SDS011;50828;53.756;21.140;2023-04-06T21:07:03;121.70;;;43.30;;
64459;SDS011;50828;53.756;21.140;2023-04-06T21:12:11;96.80;;;35.60;;
64459;SDS011;50828;53.756;21.140;2023-04-06T21:17:18;72.30;;;29.50;;
64459;SDS011;50828;53.756;21.140;2023-04-06T21:22:25;89.30;;;31.70;;
64459;SDS011;50828;53.756;21.140;2023-04-06T21:27:33;77.60;;;28.80;;
64459;SDS011;50828;53.756;21.140;2023-04-06T21:32:40;66.50;;;25.40;;
64459;SDS011;50828;53.756;21.140;2023-04-06T21:37:48;70.90;;;25.20;;
64459;SDS011;50828;53.756;21.140;2023-04-06T21:42:55;50.60;;;20.80;;
64459;SDS011;50828;53.756;21.140;2023-04-06T21:48:02;39.80;;;16.90;;
64459;SDS011;50828;53.756;21.140;2023-04-06T21:53:10;42.20;;;17.60;;
64459;SDS011;50828;53.756;21.140;2023-04-06T21:58:17;36.10;;;16.80;;
64459;SDS011;50828;53.756;21.140;2023-04-06T22:03:25;35.50;;;16.60;;
64459;SDS011;50828;53.756;21.140;2023-04-06T22:08:33;35.00;;;15.10;;
64459;SDS011;50828;53.756;21.140;2023-04-06T22:13:41;26.70;;;13.80;;
64459;SDS011;50828;53.756;21.140;2023-04-06T22:18:48;28.80;;;14.60;;
64459;SDS011;50828;53.756;21.140;2023-04-06T22:23:56;25.70;;;12.90;;
64459;SDS011;50828;53.756;21.140;2023-04-06T22:29:03;24.20;;;11.10;;
64459;SDS011;50828;53.756;21.140;2023-04-06T22:34:10;18.90;;;10.10;;
64459;SDS011;50828;53.756;21.140;2023-04-06T22:39:18;20.70;;;10.00;;
64459;SDS011;50828;53.756;21.140;2023-04-06T22:44:25;19.50;;;10.10;;
64459;SDS011;50828;53.756;21.140;2023-04-06T22:49:32;17.30;;;10.10;;
64459;SDS011;50828;53.756;21.140;2023-04-06T22:54:40;16.40;;;8.40;;
64459;SDS011;50828;53.756;21.140;2023-04-06T22:59:47;17.40;;;8.70;;
64459;SDS011;50828;53.756;21.140;2023-04-06T23:04:54;18.50;;;8.50;;
64459;SDS011;50828;53.756;21.140;2023-04-06T23:10:02;17.90;;;7.90;;
64459;SDS011;50828;53.756;21.140;2023-04-06T23:15:10;15.60;;;7.80;;
64459;SDS011;50828;53.756;21.140;2023-04-06T23:20:18;16.50;;;7.80;;
64459;SDS011;50828;53.756;21.140;2023-04-06T23:25:26;15.40;;;7.70;;
64459;SDS011;50828;53.756;21.140;2023-04-06T23:30:33;14.10;;;7.00;;
64459;SDS011;50828;53.756;21.140;2023-04-06T23:35:40;14.00;;;7.00;;
64459;SDS011;50828;53.756;21.140;2023-04-06T23:40:47;14.20;;;7.50;;
64459;SDS011;50828;53.756;21.140;2023-04-06T23:45:55;16.40;;;7.60;;
64459;SDS011;50828;53.756;21.140;2023-04-06T23:51:02;13.00;;;6.50;;
64459;SDS011;50828;53.756;21.140;2023-04-06T23:56:09;12.20;;;6.70;;
